createdAt,value
2019-06-08T00:00:31.028Z,18.00
2019-06-08T00:05:35.406Z,17.88
2019-06-08T00:10:40.628Z,17.82
2019-06-08T00:15:46.247Z,17.82
2019-06-08T00:20:51.810Z,17.85
2019-06-08T00:25:58.481Z,17.90
2019-06-08T00:31:06.637Z,17.79
2019-06-08T00:36:16.837Z,17.61
2019-06-08T00:41:23.710Z,17.53
2019-06-08T00:46:28.032Z,17.51
2019-06-08T00:51:32.232Z,17.65
2019-06-08T00:56:36.270Z,17.79
2019-06-08T01:01:40.337Z,18.02
2019-06-08T01:06:44.827Z,18.15
2019-06-08T01:11:48.869Z,18.28
2019-06-08T01:16:53.197Z,18.41
2019-06-08T01:21:57.328Z,18.50
2019-06-08T01:27:01.418Z,18.60
2019-06-08T01:32:06.114Z,18.86
2019-06-08T01:37:10.506Z,19.04
2019-06-08T01:42:14.514Z,18.85
2019-06-08T01:47:18.564Z,18.53
2019-06-08T01:52:22.746Z,18.27
2019-06-08T01:57:29.272Z,18.18
2019-06-08T02:02:34.212Z,17.82
2019-06-08T02:07:38.276Z,17.75
2019-06-08T02:12:42.400Z,17.81
2019-06-08T02:17:50.597Z,17.71
2019-06-08T02:22:55.128Z,17.67
2019-06-08T02:28:03.245Z,17.63
2019-06-08T02:33:08.179Z,17.56
2019-06-08T02:38:12.249Z,17.51
2019-06-08T02:43:16.284Z,17.39
2019-06-08T02:48:20.317Z,17.35
2019-06-08T02:53:25.886Z,17.30
2019-06-08T02:58:33.592Z,17.29
2019-06-08T03:03:39.956Z,17.23
2019-06-08T03:08:47.151Z,17.18
2019-06-08T03:13:53.411Z,17.01
2019-06-08T03:18:57.571Z,17.01
2019-06-08T03:24:01.726Z,16.89
2019-06-08T03:29:05.989Z,16.59
2019-06-08T03:34:10.145Z,16.38
2019-06-08T03:39:14.457Z,16.34
2019-06-08T03:44:18.548Z,16.21
2019-06-08T03:49:40.404Z,16.25
2019-06-08T03:54:28.336Z,16.30
2019-06-08T03:59:32.609Z,16.39
2019-06-08T04:04:37.970Z,16.41
2019-06-08T04:09:43.596Z,16.43
2019-06-08T04:14:47.775Z,16.43
2019-06-08T04:20:09.593Z,16.50
2019-06-08T04:24:57.581Z,16.52
2019-06-08T04:30:01.702Z,16.62
2019-06-08T04:35:06.710Z,16.71
2019-06-08T04:40:10.853Z,16.79
2019-06-08T04:45:17.149Z,16.85
2019-06-08T04:50:23.741Z,16.81
2019-06-08T04:55:27.297Z,16.96
2019-06-08T05:00:31.712Z,16.90
2019-06-08T05:05:35.766Z,18.29
2019-06-08T05:10:41.257Z,20.62
2019-06-08T05:15:47.269Z,25.65
2019-06-08T05:20:51.630Z,27.46
2019-06-08T05:25:55.640Z,28.30
2019-06-08T05:30:59.975Z,29.34
2019-06-08T05:36:04.208Z,30.27
2019-06-08T05:41:08.243Z,29.37
2019-06-08T05:46:12.237Z,29.99
2019-06-08T05:51:16.319Z,30.46
2019-06-08T05:56:20.388Z,28.78
2019-06-08T06:01:24.671Z,29.01
2019-06-08T06:06:28.735Z,25.55
2019-06-08T06:11:32.782Z,23.02
2019-06-08T06:16:36.821Z,21.28
2019-06-08T06:21:41.018Z,20.83
2019-06-08T06:26:45.318Z,20.65
2019-06-08T06:31:51.953Z,24.17
2019-06-08T06:36:57.490Z,26.01
2019-06-08T06:42:01.637Z,24.98
2019-06-08T06:47:06.077Z,25.44
2019-06-08T06:52:10.255Z,22.74
2019-06-08T06:57:14.310Z,22.53
2019-06-08T07:02:18.623Z,21.95
2019-06-08T07:07:22.766Z,21.17
2019-06-08T07:12:26.866Z,20.83
2019-06-08T07:17:30.967Z,21.13
2019-06-08T07:22:35.380Z,22.12
2019-06-08T07:27:39.574Z,24.42
2019-06-08T07:32:43.730Z,22.26
2019-06-08T07:37:48.960Z,20.54
2019-06-08T07:42:56.790Z,19.73
2019-06-08T07:48:01.342Z,19.09
2019-06-08T07:53:05.968Z,19.17
2019-06-08T07:58:10.012Z,19.48
2019-06-08T08:03:14.077Z,19.71
2019-06-08T08:08:18.250Z,19.68
2019-06-08T08:13:23.538Z,19.20
2019-06-08T08:18:28.090Z,19.09
2019-06-08T08:23:32.170Z,18.68
2019-06-08T08:28:37.497Z,18.54
2019-06-08T08:33:41.879Z,18.56
2019-06-08T08:38:47.829Z,18.74
2019-06-08T08:43:53.203Z,18.96
2019-06-08T08:49:05.939Z,18.39
2019-06-08T08:54:05.245Z,18.31
2019-06-08T08:59:10.817Z,18.31
2019-06-08T09:04:14.973Z,18.25
2019-06-08T09:09:21.662Z,18.26
2019-06-08T09:14:24.860Z,18.34
2019-06-08T09:19:28.883Z,18.15
2019-06-08T09:24:32.976Z,18.68
2019-06-08T09:29:38.809Z,18.84
2019-06-08T09:34:43.156Z,19.03
2019-06-08T09:39:48.262Z,19.00
2019-06-08T09:44:53.900Z,19.28
2019-06-08T09:50:01.724Z,19.03
2019-06-08T09:55:06.910Z,19.20
2019-06-08T10:00:18.045Z,19.69
2019-06-08T10:05:18.487Z,22.84
2019-06-08T10:10:22.675Z,22.19
2019-06-08T10:15:27.868Z,21.44
2019-06-08T10:20:31.927Z,20.23
2019-06-08T10:25:38.396Z,20.00
2019-06-08T10:30:41.889Z,20.10
2019-06-08T10:35:47.994Z,20.67
2019-06-08T10:40:51.983Z,21.29
2019-06-08T10:45:57.894Z,22.54
2019-06-08T10:51:03.823Z,22.50
2019-06-08T10:56:11.773Z,23.12
2019-06-08T11:01:13.733Z,23.54
2019-06-08T11:06:18.794Z,22.93
2019-06-08T11:11:23.670Z,23.65
2019-06-08T11:16:28.724Z,23.33
2019-06-08T11:21:33.007Z,22.27
2019-06-08T11:26:40.039Z,23.17
2019-06-08T11:31:42.811Z,24.34
2019-06-08T11:36:48.420Z,24.52
2019-06-08T11:41:52.637Z,24.21
2019-06-08T11:46:57.513Z,22.32
2019-06-08T11:52:02.572Z,22.27
2019-06-08T11:57:09.981Z,22.73
2019-06-08T12:02:14.269Z,23.00
2019-06-08T12:07:18.558Z,23.30
2019-06-08T12:12:23.000Z,24.85
2019-06-08T12:17:27.576Z,24.73
2019-06-08T12:22:31.886Z,25.16
2019-06-08T12:27:40.201Z,24.46
2019-06-08T12:32:44.354Z,24.05
2019-06-08T12:37:51.439Z,24.03
2019-06-08T12:42:54.386Z,24.71
2019-06-08T12:48:05.162Z,24.01
2019-06-08T12:53:16.405Z,24.82
2019-06-08T12:58:22.066Z,24.48
2019-06-08T13:03:27.722Z,24.64
2019-06-08T13:09:04.582Z,24.58
2019-06-08T13:14:31.141Z,25.08
2019-06-08T13:19:35.242Z,23.93
2019-06-08T13:24:39.321Z,23.67
2019-06-08T13:29:43.484Z,23.45
2019-06-08T13:34:50.222Z,23.84
2019-06-08T13:39:53.357Z,24.61
2019-06-08T13:44:57.865Z,24.98
2019-06-08T13:50:02.161Z,24.87
2019-06-08T13:55:06.721Z,24.54
2019-06-08T14:00:13.415Z,24.96
2019-06-08T14:05:26.243Z,25.11
2019-06-08T14:10:38.628Z,25.65
2019-06-08T14:15:42.754Z,25.27
2019-06-08T14:20:48.328Z,24.82
2019-06-08T14:25:56.610Z,24.59
2019-06-08T14:30:59.344Z,25.40
2019-06-08T14:36:03.598Z,25.50
2019-06-08T14:41:07.758Z,24.88
2019-06-08T14:46:11.840Z,25.01
2019-06-08T14:51:16.008Z,25.01
2019-06-08T14:56:21.303Z,24.94
2019-06-08T15:01:26.342Z,24.91
2019-06-08T15:06:34.232Z,24.60
2019-06-08T15:11:38.102Z,24.66
2019-06-08T15:16:42.237Z,24.62
2019-06-08T15:21:48.761Z,24.29
2019-06-08T15:26:52.892Z,23.75
2019-06-08T15:31:58.177Z,23.04
2019-06-08T15:37:02.731Z,23.88
2019-06-08T15:42:08.274Z,24.41
2019-06-08T15:47:12.798Z,24.20
2019-06-08T15:52:17.588Z,23.80
2019-06-08T15:57:22.988Z,24.21
2019-06-08T16:02:27.331Z,24.02
2019-06-08T16:07:32.802Z,24.16
2019-06-08T16:12:38.173Z,23.69
2019-06-08T16:17:42.177Z,24.08
2019-06-08T16:22:46.242Z,24.05
2019-06-08T16:27:50.365Z,23.70
2019-06-08T16:33:07.940Z,23.77
2019-06-08T16:38:14.642Z,24.05
2019-06-08T16:43:18.881Z,24.21
2019-06-08T16:48:22.994Z,23.51
2019-06-08T16:53:27.422Z,23.33
2019-06-08T16:58:32.120Z,22.84
2019-06-08T17:03:36.950Z,23.29
2019-06-08T17:08:42.146Z,23.55
2019-06-08T17:13:46.997Z,23.61
2019-06-08T17:18:51.187Z,22.96
2019-06-08T17:23:55.248Z,22.78
2019-06-08T17:28:59.281Z,22.50
2019-06-08T17:34:03.388Z,22.17
2019-06-08T17:39:07.831Z,22.11
2019-06-08T17:44:12.235Z,21.18
2019-06-08T17:49:16.308Z,21.20
2019-06-08T17:54:20.368Z,21.66
2019-06-08T17:59:24.799Z,21.77
2019-06-08T18:04:29.173Z,21.97
2019-06-08T18:09:33.785Z,21.63
2019-06-08T18:14:40.477Z,21.35
2019-06-08T18:20:01.290Z,21.21
2019-06-08T18:25:07.827Z,20.83
2019-06-08T18:30:19.158Z,20.53
2019-06-08T18:35:23.958Z,20.27
2019-06-08T18:40:28.804Z,20.07
2019-06-08T18:45:33.493Z,19.74
2019-06-08T18:50:40.356Z,19.51
2019-06-08T18:55:45.081Z,19.23
2019-06-08T19:00:51.568Z,18.75
2019-06-08T19:05:56.024Z,18.37
2019-06-08T19:11:00.201Z,18.12
2019-06-08T19:16:04.237Z,17.73
2019-06-08T19:21:08.243Z,17.41
2019-06-08T19:26:12.281Z,17.24
2019-06-08T19:31:17.603Z,16.98
2019-06-08T19:36:21.769Z,16.72
2019-06-08T19:41:28.105Z,16.49
2019-06-08T19:46:31.999Z,16.19
2019-06-08T19:51:38.215Z,16.00
2019-06-08T19:56:41.947Z,15.81
2019-06-08T20:01:52.623Z,15.62
2019-06-08T20:06:51.745Z,15.53
2019-06-08T20:11:59.810Z,15.20
2019-06-08T20:17:01.743Z,14.95
2019-06-08T20:22:07.536Z,14.83
2019-06-08T20:27:17.218Z,14.53
2019-06-08T20:32:23.640Z,14.37
2019-06-08T20:37:28.401Z,14.16
2019-06-08T20:42:32.982Z,13.83
2019-06-08T20:47:39.110Z,13.71
2019-06-08T20:52:43.031Z,13.54
2019-06-08T20:57:48.162Z,13.29
2019-06-08T21:02:53.580Z,13.06
2019-06-08T21:07:59.262Z,12.80
2019-06-08T21:13:03.615Z,12.53
2019-06-08T21:18:07.971Z,12.33
2019-06-08T21:23:12.175Z,12.27
2019-06-08T21:28:17.169Z,12.30
2019-06-08T21:33:21.457Z,12.22
2019-06-08T21:38:28.037Z,12.08
2019-06-08T21:43:31.218Z,12.02
2019-06-08T21:48:35.370Z,11.88
2019-06-08T21:53:39.420Z,11.77
2019-06-08T21:58:43.457Z,11.84
2019-06-08T22:03:47.570Z,11.93
2019-06-08T22:08:51.959Z,11.90
2019-06-08T22:13:59.223Z,11.80
2019-06-08T22:19:03.253Z,11.71
2019-06-08T22:24:08.061Z,11.69
2019-06-08T22:29:12.591Z,11.52
2019-06-08T22:34:17.508Z,11.27
2019-06-08T22:39:21.663Z,11.02
2019-06-08T22:44:28.254Z,10.87
2019-06-08T22:49:31.484Z,10.70
2019-06-08T22:54:35.553Z,10.52
2019-06-08T22:59:39.614Z,10.44
2019-06-08T23:04:43.623Z,10.26
2019-06-08T23:09:47.930Z,10.14
2019-06-08T23:14:52.428Z,9.98
2019-06-08T23:19:57.791Z,9.88
2019-06-08T23:25:03.303Z,9.76
2019-06-08T23:30:10.107Z,9.65
2019-06-08T23:35:14.825Z,9.59
2019-06-08T23:40:18.888Z,9.56
2019-06-08T23:45:23.277Z,9.39
2019-06-08T23:50:27.360Z,9.22
2019-06-08T23:55:31.397Z,9.13
